Time;durP1;ratioP1;P1;durP2;ratioP2;P2;SDS_P1;SDS_P2;PMS_P1;PMS_P2;Temp;Humidity;BMP_temperature;BMP_pressure;BME280_temperature;BME280_humidity;BME280_pressure;Samples;Min_cycle;Max_cycle;Signal;HPM_P1;HPM_P2
2023/12/05 00:01:40;;;;;;;15.15;2.88;;;;;;;4.72;100.00;99489.16;5016985;28;20035;-73
2023/12/05 00:04:06;;;;;;;14.00;1.92;;;;;;;4.70;100.00;99494.94;5017147;28;20359;-73
2023/12/05 00:06:31;;;;;;;16.17;2.30;;;;;;;4.68;100.00;99486.97;5049496;28;20091;-73
2023/12/05 00:08:57;;;;;;;13.70;2.28;;;;;;;4.63;100.00;99498.00;5016196;28;20022;-73
2023/12/05 00:11:22;;;;;;;10.93;2.28;;;;;;;4.65;100.00;99504.03;5066438;28;20036;-73
2023/12/05 00:13:48;;;;;;;14.15;2.25;;;;;;;4.58;100.00;99500.75;5000765;28;20034;-73
2023/12/05 00:16:14;;;;;;;11.02;2.40;;;;;;;4.56;100.00;99508.44;4999855;28;20034;-74
2023/12/05 00:18:43;;;;;;;8.55;1.80;;;;;;;4.59;100.00;99509.81;5014152;28;20056;-73
2023/12/05 00:21:08;;;;;;;13.65;2.75;;;;;;;4.56;100.00;99510.38;5036367;28;20044;-73
2023/12/05 00:23:34;;;;;;;18.17;2.35;;;;;;;4.54;100.00;99507.94;5020204;28;20025;-73
2023/12/05 00:25:59;;;;;;;16.00;2.45;;;;;;;4.52;100.00;99518.38;5003621;28;20030;-73
2023/12/05 00:28:25;;;;;;;12.60;2.40;;;;;;;4.49;100.00;99507.94;5002510;28;20022;-73
2023/12/05 00:30:50;;;;;;;13.10;2.40;;;;;;;4.44;100.00;99510.69;5023515;28;20033;-73
2023/12/05 00:33:16;;;;;;;8.57;1.65;;;;;;;4.45;100.00;99512.31;5009659;28;20120;-73
2023/12/05 00:35:41;;;;;;;14.23;2.08;;;;;;;4.47;100.00;99512.88;5016799;28;20033;-73
2023/12/05 00:38:06;;;;;;;13.02;2.50;;;;;;;4.41;100.00;99503.81;5019832;28;20026;-73
2023/12/05 00:40:32;;;;;;;16.40;2.78;;;;;;;4.39;100.00;99513.44;5019582;28;20117;-73
2023/12/05 00:42:57;;;;;;;10.43;2.38;;;;;;;4.39;100.00;99516.19;5016317;28;20025;-73
2023/12/05 00:45:23;;;;;;;13.13;2.22;;;;;;;4.39;100.00;99522.50;5017028;28;20478;-73
2023/12/05 00:47:50;;;;;;;12.50;2.38;;;;;;;4.35;100.00;99509.63;5000077;28;20022;-73
2023/12/05 00:50:16;;;;;;;12.45;2.10;;;;;;;4.33;100.00;99511.81;5035024;28;20065;-73
2023/12/05 00:52:42;;;;;;;9.98;2.05;;;;;;;4.32;100.00;99515.63;5019706;28;20038;-73
2023/12/05 00:55:08;;;;;;;11.68;2.17;;;;;;;4.32;100.00;99523.88;4999920;28;20505;-73
2023/12/05 00:57:34;;;;;;;10.80;2.47;;;;;;;4.27;100.00;99532.16;5027246;28;20029;-73
2023/12/05 00:59:59;;;;;;;17.33;2.92;;;;;;;4.23;100.00;99527.22;5019305;28;20029;-73
2023/12/05 01:02:25;;;;;;;14.57;2.55;;;;;;;4.27;100.00;99521.16;5003248;28;20026;-73
2023/12/05 01:04:50;;;;;;;8.95;1.80;;;;;;;4.25;100.00;99524.19;5029391;28;20029;-73
2023/12/05 01:07:17;;;;;;;12.35;2.30;;;;;;;4.23;100.00;99527.22;5002683;28;20525;-73
2023/12/05 01:09:43;;;;;;;11.13;1.95;;;;;;;4.20;100.00;99546.97;5002748;28;20029;-73
2023/12/05 01:12:10;;;;;;;10.70;1.98;;;;;;;4.18;100.00;99531.88;4999487;28;20087;-73
2023/12/05 01:14:36;;;;;;;14.75;2.55;;;;;;;4.16;100.00;99534.91;5018935;28;20031;-73
2023/12/05 01:17:01;;;;;;;15.50;2.20;;;;;;;4.16;100.00;99537.66;4999187;28;20498;-73
2023/12/05 01:19:27;;;;;;;10.48;1.85;;;;;;;4.16;100.00;99543.16;5044939;28;20041;-73
2023/12/05 01:21:52;;;;;;;9.50;2.17;;;;;;;4.15;100.00;99536.00;5013353;28;20056;-73
2023/12/05 01:24:18;;;;;;;7.15;1.98;;;;;;;4.12;100.00;99553.03;5032470;28;20116;-73
2023/12/05 01:26:44;;;;;;;10.20;1.83;;;;;;;4.13;100.00;99551.94;5041708;28;20037;-73
2023/12/05 01:29:10;;;;;;;16.45;2.45;;;;;;;4.11;100.00;99556.06;5016464;28;20035;-73
2023/12/05 01:31:36;;;;;;;10.02;2.08;;;;;;;4.09;100.00;99569.25;5002778;28;20029;-73
2023/12/05 01:34:01;;;;;;;9.95;1.98;;;;;;;4.12;100.00;99561.28;5035191;28;20056;-73
2023/12/05 01:36:27;;;;;;;6.70;1.75;;;;;;;4.08;100.00;99562.94;5018770;28;20025;-73
2023/12/05 01:38:52;;;;;;;11.63;1.80;;;;;;;4.05;100.00;99555.25;5018649;28;20037;-73
2023/12/05 01:41:18;;;;;;;11.35;1.98;;;;;;;4.03;100.00;99562.94;5015588;28;20117;-73
2023/12/05 01:43:44;;;;;;;13.70;1.98;;;;;;;3.98;100.00;99557.41;4999084;28;20397;-73
2023/12/05 01:46:09;;;;;;;7.70;1.92;;;;;;;3.93;100.00;99551.94;5011273;28;20034;-73
2023/12/05 01:48:35;;;;;;;16.00;2.63;;;;;;;3.90;100.00;99563.47;5018692;28;20030;-73
2023/12/05 01:51:01;;;;;;;10.80;2.25;;;;;;;3.89;100.00;99567.31;4999885;28;20026;-73
2023/12/05 01:53:26;;;;;;;12.75;2.40;;;;;;;3.89;100.00;99565.38;5029884;28;20708;-73
2023/12/05 01:55:52;;;;;;;5.95;1.75;;;;;;;3.90;100.00;99566.19;4998967;28;20045;-73
2023/12/05 01:58:18;;;;;;;9.60;2.22;;;;;;;3.87;100.00;99572.25;5046010;28;20025;-73
2023/12/05 02:00:44;;;;;;;13.27;2.25;;;;;;;3.86;100.00;99565.94;5018486;28;20116;-73
2023/12/05 02:03:10;;;;;;;10.43;1.83;;;;;;;3.89;100.00;99564.56;4999109;28;20083;-73
2023/12/05 02:05:36;;;;;;;8.07;1.85;;;;;;;3.80;100.00;99575.28;5039813;28;20035;-73
2023/12/05 02:08:01;;;;;;;9.68;1.85;;;;;;;3.80;100.00;99581.59;5016741;28;20022;-73
2023/12/05 02:10:27;;;;;;;12.43;2.10;;;;;;;3.76;100.00;99582.38;5035002;28;20065;-73
2023/12/05 02:12:52;;;;;;;10.20;2.10;;;;;;;3.72;100.00;99597.78;5021484;28;20399;-73
2023/12/05 02:15:18;;;;;;;7.00;1.40;;;;;;;3.68;100.00;99592.00;5019972;28;20057;-73
2023/12/05 02:18:14;;;;;;;14.55;2.53;;;;;;;3.66;100.00;99579.63;5024700;28;20060;-73
2023/12/05 02:21:04;;;;;;;10.88;2.08;;;;;;;3.63;100.00;99575.50;4984580;28;20556;-73
2023/12/05 02:24:06;;;;;;;8.27;1.98;;;;;;;3.62;100.00;99595.81;5021022;28;20033;-73
2023/12/05 02:27:12;;;;;;;8.98;2.00;;;;;;;3.56;100.00;99596.91;5022568;28;20029;-73
2023/12/05 02:29:48;;;;;;;9.18;1.73;;;;;;;3.53;100.00;99587.28;5014421;28;20033;-73
2023/12/05 02:32:14;;;;;;;8.07;2.28;;;;;;;3.51;100.00;99584.00;5022196;28;20022;-73
2023/12/05 02:34:39;;;;;;;8.88;1.95;;;;;;;3.52;100.00;99601.28;5004564;28;20033;-73
2023/12/05 02:37:18;;;;;;;8.00;2.10;;;;;;;3.43;100.00;99598.25;5022839;28;20033;-73
2023/12/05 02:40:07;;;;;;;6.68;1.50;;;;;;;3.41;100.00;99610.59;5033634;28;20474;-73
2023/12/05 02:42:32;;;;;;;6.70;1.48;;;;;;;3.39;100.00;99616.34;5005643;28;20033;-73
2023/12/05 02:44:58;;;;;;;12.52;2.03;;;;;;;3.43;100.00;99622.94;5005614;28;20041;-73
2023/12/05 02:47:24;;;;;;;7.72;1.50;;;;;;;3.41;100.00;99621.56;5051680;28;20091;-73
2023/12/05 02:49:50;;;;;;;9.02;1.80;;;;;;;3.38;100.00;99627.59;5030958;28;20053;-73
2023/12/05 02:52:16;;;;;;;7.30;1.58;;;;;;;3.34;100.00;99633.63;5020372;28;20101;-73
2023/12/05 02:54:41;;;;;;;7.93;1.73;;;;;;;3.36;100.00;99636.91;5005401;28;20033;-73
2023/12/05 02:57:07;;;;;;;9.82;1.80;;;;;;;3.33;100.00;99629.22;5038085;28;20524;-73
2023/12/05 02:59:32;;;;;;;7.97;1.90;;;;;;;3.32;100.00;99634.97;5005073;28;20038;-73
2023/12/05 03:01:58;;;;;;;7.40;1.60;;;;;;;3.29;100.00;99630.84;5001865;28;20037;-73
2023/12/05 03:04:23;;;;;;;6.68;1.20;;;;;;;3.28;100.00;99634.66;5005266;28;20680;-73
2023/12/05 03:06:49;;;;;;;9.95;1.65;;;;;;;3.29;100.00;99630.03;5004839;28;20100;-73
2023/12/05 03:09:14;;;;;;;9.68;2.08;;;;;;;3.23;100.00;99625.59;5001675;28;20030;-73
2023/12/05 03:11:40;;;;;;;6.85;1.75;;;;;;;3.18;100.00;99629.16;5036456;28;20037;-73
2023/12/05 03:14:06;;;;;;;7.53;1.75;;;;;;;3.18;100.00;99622.84;5001717;28;20030;-73
2023/12/05 03:16:31;;;;;;;12.68;2.38;;;;;;;3.15;100.00;99629.69;5001436;28;20068;-73
2023/12/05 03:18:57;;;;;;;10.23;1.90;;;;;;;3.15;100.00;99626.94;5013641;28;20038;-73
2023/12/05 03:21:22;;;;;;;7.85;1.17;;;;;;;3.09;100.00;99627.97;5004540;28;20037;-73
2023/12/05 03:23:48;;;;;;;9.57;1.48;;;;;;;3.05;100.00;99629.63;4985441;28;20518;-73
2023/12/05 03:26:20;;;;;;;7.13;1.60;;;;;;;3.06;100.00;99625.78;5017556;28;20557;-73
2023/12/05 03:28:48;;;;;;;9.23;1.88;;;;;;;3.05;100.00;99629.63;5024306;28;20064;-73
2023/12/05 03:31:14;;;;;;;9.00;1.60;;;;;;;3.03;100.00;99634.53;5021332;28;20032;-73
2023/12/05 03:33:39;;;;;;;8.30;1.80;;;;;;;3.04;100.00;99642.53;5023986;28;20057;-73
2023/12/05 03:36:05;;;;;;;7.05;1.42;;;;;;;3.04;100.00;99633.47;5037532;28;20083;-73
2023/12/05 03:38:30;;;;;;;6.03;1.38;;;;;;;3.01;100.00;99639.47;5020922;28;20104;-73
2023/12/05 03:40:56;;;;;;;11.52;1.52;;;;;;;3.04;100.00;99638.97;5017573;28;20132;-73
2023/12/05 03:43:22;;;;;;;11.38;1.40;;;;;;;2.95;100.00;99635.84;4998087;28;20029;-73
2023/12/05 03:45:48;;;;;;;7.13;1.65;;;;;;;2.95;100.00;99646.00;5029139;28;20076;-73
2023/12/05 03:48:13;;;;;;;3.70;1.20;;;;;;;2.95;100.00;99651.50;5015271;28;20034;-73
2023/12/05 03:50:39;;;;;;;9.82;1.75;;;;;;;2.93;100.00;99651.78;5005520;28;20029;-73
2023/12/05 03:53:04;;;;;;;6.32;1.45;;;;;;;2.91;100.00;99654.78;5007713;28;20034;-73
2023/12/05 03:55:34;;;;;;;8.80;1.40;;;;;;;2.89;100.00;99656.94;5020750;28;20030;-73
2023/12/05 03:57:59;;;;;;;8.63;1.52;;;;;;;2.87;100.00;99659.16;5020657;28;20025;-73
2023/12/05 04:00:25;;;;;;;10.07;1.67;;;;;;;2.83;100.00;99647.03;4992740;28;20040;-73
2023/12/05 04:02:50;;;;;;;7.72;1.80;;;;;;;2.78;100.00;99652.47;5015292;28;20040;-73
2023/12/05 04:05:16;;;;;;;6.45;1.50;;;;;;;2.79;100.00;99653.34;5023273;28;20429;-73
2023/12/05 04:07:41;;;;;;;13.25;1.65;;;;;;;2.77;100.00;99664.56;5036985;28;20021;-73
2023/12/05 04:10:08;;;;;;;10.43;1.92;;;;;;;2.79;100.00;99659.63;5020267;28;20087;-73
2023/12/05 04:12:34;;;;;;;6.65;1.50;;;;;;;2.82;100.00;99666.50;5020386;28;20441;-73
2023/12/05 04:14:59;;;;;;;9.68;1.42;;;;;;;2.84;100.00;99667.91;5020088;28;20033;-73
2023/12/05 04:17:25;;;;;;;9.80;1.67;;;;;;;2.86;100.00;99660.22;5000146;28;20391;-73
2023/12/05 04:19:51;;;;;;;10.88;2.00;;;;;;;2.88;100.00;99684.66;5016108;28;20514;-73
2023/12/05 04:22:16;;;;;;;5.72;1.50;;;;;;;2.90;100.00;99683.31;5036647;28;20021;-73
2023/12/05 04:24:42;;;;;;;10.93;1.90;;;;;;;2.95;100.00;99689.91;5003824;28;20029;-73
2023/12/05 04:27:07;;;;;;;11.68;1.48;;;;;;;3.01;100.00;99677.88;5035286;28;20033;-73
2023/12/05 04:29:33;;;;;;;3.90;1.15;;;;;;;3.01;100.00;99683.34;5019498;28;20021;-73
2023/12/05 04:32:02;;;;;;;6.45;1.00;;;;;;;3.05;100.00;99689.97;4984139;28;20037;-73
2023/12/05 04:34:27;;;;;;;7.80;1.35;;;;;;;3.07;100.00;99704.25;5033212;28;20036;-73
2023/12/05 04:36:53;;;;;;;12.23;1.38;;;;;;;3.13;100.00;99706.75;5029621;28;20025;-73
2023/12/05 04:39:19;;;;;;;6.85;1.50;;;;;;;3.14;100.00;99704.84;5019708;28;20036;-73
2023/12/05 04:41:44;;;;;;;6.50;1.33;;;;;;;3.18;100.00;99713.38;5036265;28;20029;-73
2023/12/05 04:44:10;;;;;;;10.05;1.30;;;;;;;3.24;100.00;99710.41;5049610;28;20030;-73
2023/12/05 04:46:37;;;;;;;6.75;1.42;;;;;;;3.25;100.00;99711.22;5016339;28;20045;-73
2023/12/05 04:49:03;;;;;;;7.50;1.33;;;;;;;3.24;100.00;99715.88;5046042;28;20026;-73
2023/12/05 04:51:28;;;;;;;3.67;1.30;;;;;;;3.30;100.00;99712.09;5032839;28;20055;-73
2023/12/05 04:53:54;;;;;;;5.55;1.33;;;;;;;3.32;100.00;99709.91;5009915;28;20029;-73
2023/12/05 04:56:19;;;;;;;4.90;1.30;;;;;;;3.38;100.00;99710.75;5019216;28;20061;-73
2023/12/05 04:58:45;;;;;;;8.77;1.40;;;;;;;3.35;100.00;99717.59;5035584;28;20084;-73
2023/12/05 05:01:11;;;;;;;5.90;1.10;;;;;;;3.39;100.00;99722.56;5016232;28;20041;-73
2023/12/05 05:03:36;;;;;;;4.07;1.33;;;;;;;3.42;100.00;99722.03;5010469;28;20025;-73
2023/12/05 05:06:02;;;;;;;6.70;1.42;;;;;;;3.45;100.00;99721.50;5027900;28;20032;-73
2023/12/05 05:08:27;;;;;;;5.78;1.58;;;;;;;3.49;100.00;99737.16;5031180;28;20030;-73
2023/12/05 05:10:53;;;;;;;2.78;1.10;;;;;;;3.51;100.00;99742.38;4995301;28;20486;-73
2023/12/05 05:13:19;;;;;;;5.55;1.40;;;;;;;3.53;100.00;99738.28;5035724;28;20621;-73
2023/12/05 05:15:44;;;;;;;5.22;1.30;;;;;;;3.56;100.00;99747.91;5035869;28;20433;-73
2023/12/05 05:18:10;;;;;;;7.60;1.50;;;;;;;3.58;100.00;99749.28;5018804;28;20556;-73
2023/12/05 05:20:35;;;;;;;3.50;1.10;;;;;;;3.56;100.00;99740.50;5002487;28;20033;-73
2023/12/05 05:23:01;;;;;;;5.43;0.90;;;;;;;3.56;100.00;99750.66;5002752;28;20040;-73
2023/12/05 05:25:26;;;;;;;8.98;1.38;;;;;;;3.57;100.00;99760.56;5015772;28;20033;-73
2023/12/05 05:27:52;;;;;;;7.22;1.48;;;;;;;3.58;100.00;99754.78;5044045;28;20537;-73
2023/12/05 05:30:17;;;;;;;5.90;1.30;;;;;;;3.57;100.00;99752.31;5023596;28;20033;-73
2023/12/05 05:32:43;;;;;;;5.50;1.15;;;;;;;3.56;100.00;99756.13;5034019;28;20063;-73
2023/12/05 05:35:09;;;;;;;6.68;1.13;;;;;;;3.54;100.00;99750.13;5015356;28;20073;-73
2023/12/05 05:37:36;;;;;;;4.20;1.20;;;;;;;3.56;100.00;99756.13;5017616;28;20029;-73
2023/12/05 05:40:02;;;;;;;5.47;1.15;;;;;;;3.59;100.00;99755.59;5019183;28;20458;-73
2023/12/05 05:42:28;;;;;;;6.05;1.38;;;;;;;3.56;100.00;99767.13;5016202;28;20136;-73
2023/12/05 05:44:53;;;;;;;5.00;1.38;;;;;;;3.55;100.00;99768.22;5008310;28;20030;-73
2023/12/05 05:47:18;;;;;;;4.30;1.40;;;;;;;3.53;100.00;99768.47;5018070;28;20021;-73
2023/12/05 05:49:44;;;;;;;6.20;1.63;;;;;;;3.52;100.00;99772.31;5002307;28;20036;-73
2023/12/05 05:52:09;;;;;;;4.03;1.65;;;;;;;3.49;100.00;99777.53;4999424;28;20034;-73
2023/12/05 05:54:35;;;;;;;6.53;1.33;;;;;;;3.45;100.00;99787.38;5027689;28;20033;-73
2023/12/05 05:57:01;;;;;;;9.20;1.50;;;;;;;3.45;100.00;99792.88;4998695;28;20026;-73
2023/12/05 05:59:26;;;;;;;5.57;1.45;;;;;;;3.43;100.00;99792.31;5019404;28;20034;-73
2023/12/05 06:01:52;;;;;;;5.75;1.48;;;;;;;3.38;100.00;99789.53;5064257;28;20029;-73
2023/12/05 06:04:17;;;;;;;8.15;1.88;;;;;;;3.35;100.00;99778.00;5022278;28;20034;-73
2023/12/05 06:06:42;;;;;;;3.88;1.38;;;;;;;3.38;100.00;99786.78;4996569;28;20026;-73
2023/12/05 06:09:09;;;;;;;7.82;1.30;;;;;;;3.34;100.00;99792.81;5019211;28;20035;-73
2023/12/05 06:11:34;;;;;;;5.78;1.30;;;;;;;3.26;100.00;99786.97;5035734;28;20117;-73
2023/12/05 06:14:00;;;;;;;10.95;1.85;;;;;;;3.24;100.00;99792.72;5002899;28;20095;-73
2023/12/05 06:16:25;;;;;;;6.32;1.50;;;;;;;3.23;100.00;99801.22;5002495;28;20474;-73
2023/12/05 06:18:51;;;;;;;5.90;1.50;;;;;;;3.20;100.00;99808.06;5019306;28;20034;-73
2023/12/05 06:21:17;;;;;;;8.93;1.60;;;;;;;3.15;100.00;99802.56;5018749;28;20033;-73
2023/12/05 06:23:42;;;;;;;6.18;1.20;;;;;;;3.12;100.00;99803.91;5038948;28;20033;-73
2023/12/05 06:26:08;;;;;;;5.75;1.05;;;;;;;3.06;100.00;99813.16;5022302;28;20040;-73
2023/12/05 06:28:33;;;;;;;5.80;1.42;;;;;;;3.03;100.00;99816.41;5021277;28;20029;-73
2023/12/05 06:30:59;;;;;;;7.18;1.63;;;;;;;3.01;100.00;99829.59;5022097;28;20386;-73
2023/12/05 06:33:25;;;;;;;5.18;1.27;;;;;;;2.97;100.00;99836.66;5038681;28;20108;-73
2023/12/05 06:35:50;;;;;;;8.27;1.48;;;;;;;2.93;100.00;99826.50;5021925;28;20087;-73
2023/12/05 06:38:16;;;;;;;8.18;1.25;;;;;;;2.87;100.00;99831.09;5005543;28;20033;-73
2023/12/05 06:40:41;;;;;;;7.68;1.60;;;;;;;2.83;100.00;99843.66;5038412;28;20036;-73
2023/12/05 06:43:07;;;;;;;6.53;1.25;;;;;;;2.79;100.00;99846.13;5038396;28;20036;-73
2023/12/05 06:45:34;;;;;;;7.28;1.23;;;;;;;2.74;100.00;99851.53;5038368;28;20044;-73
2023/12/05 06:48:02;;;;;;;6.28;1.30;;;;;;;2.73;100.00;99846.31;5018755;28;20045;-73
2023/12/05 06:50:28;;;;;;;2.95;1.02;;;;;;;2.69;100.00;99855.03;5007903;28;20037;-73
2023/12/05 06:52:57;;;;;;;4.22;1.23;;;;;;;2.67;100.00;99853.66;5002303;28;20092;-73
2023/12/05 06:55:23;;;;;;;5.15;1.42;;;;;;;2.69;100.00;99860.53;5033251;28;20464;-73
2023/12/05 06:57:49;;;;;;;5.75;1.20;;;;;;;2.64;100.00;99860.47;5037382;28;20033;-73
2023/12/05 07:00:15;;;;;;;4.63;1.10;;;;;;;2.63;100.00;99869.78;5044965;28;20540;-73
2023/12/05 07:02:41;;;;;;;7.90;1.55;;;;;;;2.66;100.00;99865.72;5005729;28;20044;-73
2023/12/05 07:05:08;;;;;;;6.82;1.13;;;;;;;2.65;100.00;99866.81;4991659;28;20482;-73
2023/12/05 07:07:34;;;;;;;5.30;1.23;;;;;;;2.64;100.00;99865.13;5002500;28;20079;-73
2023/12/05 07:10:00;;;;;;;7.65;1.70;;;;;;;2.64;100.00;99860.47;5036162;28;20033;-73
2023/12/05 07:12:25;;;;;;;5.85;1.48;;;;;;;2.61;100.00;99871.13;5021622;28;20056;-73
2023/12/05 07:14:51;;;;;;;7.40;1.50;;;;;;;2.59;100.00;99876.88;5019383;28;20030;-73
2023/12/05 07:17:16;;;;;;;5.25;1.30;;;;;;;2.62;100.00;99870.88;5012996;28;20115;-73
2023/12/05 07:19:42;;;;;;;3.60;1.35;;;;;;;2.61;100.00;99882.09;5001376;28;20542;-73
2023/12/05 07:22:07;;;;;;;5.38;1.63;;;;;;;2.63;100.00;99882.69;5017555;28;20117;-73
2023/12/05 07:24:33;;;;;;;3.15;1.15;;;;;;;2.60;100.00;99877.72;5027446;28;20021;-73
2023/12/05 07:26:59;;;;;;;10.65;1.25;;;;;;;2.55;100.00;99892.19;5009890;28;20057;-73
2023/12/05 07:29:24;;;;;;;9.73;1.20;;;;;;;2.54;100.00;99889.72;5016540;28;20089;-73
2023/12/05 07:31:50;;;;;;;8.18;1.95;;;;;;;2.51;100.00;99898.41;5034265;28;20479;-73
2023/12/05 07:34:15;;;;;;;8.23;1.77;;;;;;;2.44;100.00;99902.19;5034118;28;20386;-73
2023/12/05 07:36:41;;;;;;;7.38;1.52;;;;;;;2.45;100.00;99916.72;5012640;28;20087;-72
2023/12/05 07:39:09;;;;;;;8.25;1.48;;;;;;;2.43;100.00;99911.50;5020955;28;20036;-73
2023/12/05 07:41:35;;;;;;;5.32;1.50;;;;;;;2.53;100.00;99915.44;5021382;28;20033;-73
2023/12/05 07:44:00;;;;;;;6.80;1.58;;;;;;;2.45;100.00;99919.44;5037233;28;20478;-73
2023/12/05 07:46:26;;;;;;;7.85;1.50;;;;;;;2.43;100.00;99924.38;5020908;28;20037;-73
2023/12/05 07:48:51;;;;;;;5.28;1.40;;;;;;;2.41;100.00;99921.88;5017622;28;20394;-73
2023/12/05 07:51:17;;;;;;;5.15;1.63;;;;;;;2.41;100.00;99921.88;5029133;28;20029;-73
2023/12/05 07:53:44;;;;;;;5.25;1.77;;;;;;;2.40;100.00;99922.97;5021253;28;20075;-73
2023/12/05 07:56:10;;;;;;;4.00;1.67;;;;;;;2.46;100.00;99935.66;5037182;28;20041;-73
2023/12/05 07:58:35;;;;;;;5.10;1.45;;;;;;;2.43;100.00;99927.94;5019188;28;20429;-73
2023/12/05 08:01:00;;;;;;;4.90;1.70;;;;;;;2.43;100.00;99936.16;5034021;28;20030;-73
2023/12/05 08:03:26;;;;;;;9.00;1.73;;;;;;;2.45;100.00;99930.41;5017086;28;20041;-73
2023/12/05 08:05:52;;;;;;;5.00;1.50;;;;;;;2.51;100.00;99937.66;5027728;28;20060;-73
2023/12/05 08:08:17;;;;;;;9.77;1.45;;;;;;;2.50;100.00;99935.16;5024622;28;20033;-73
2023/12/05 08:10:43;;;;;;;5.53;1.20;;;;;;;2.52;100.00;99949.44;5009878;28;20030;-73
2023/12/05 08:13:09;;;;;;;4.00;1.30;;;;;;;2.54;100.00;99947.28;5035708;28;20040;-73
2023/12/05 08:15:34;;;;;;;9.43;1.60;;;;;;;2.53;100.00;99956.56;5000873;28;20038;-73
2023/12/05 08:18:00;;;;;;;4.57;1.33;;;;;;;2.57;100.00;99964.03;5016540;28;20406;-73
2023/12/05 08:20:25;;;;;;;14.30;2.20;;;;;;;2.58;100.00;99965.69;5027372;28;20048;-73
2023/12/05 08:22:51;;;;;;;7.78;2.17;;;;;;;2.61;100.00;99976.13;5034314;28;20025;-73
2023/12/05 08:25:16;;;;;;;7.25;1.40;;;;;;;2.63;100.00;99973.97;5011170;28;20091;-73
2023/12/05 08:27:42;;;;;;;4.03;1.48;;;;;;;2.67;100.00;99971.53;5045210;28;20085;-73
2023/12/05 08:30:07;;;;;;;10.02;1.80;;;;;;;2.71;100.00;99978.19;5037164;28;20029;-73
2023/12/05 08:32:34;;;;;;;5.70;1.50;;;;;;;2.77;100.00;99979.09;5019155;28;20109;-73
2023/12/05 08:34:59;;;;;;;4.75;1.70;;;;;;;2.81;100.00;99991.19;5024538;28;20034;-73
2023/12/05 08:37:25;;;;;;;7.88;2.10;;;;;;;2.87;100.00;99984.66;5032348;28;20025;-73
2023/12/05 08:39:50;;;;;;;8.40;2.40;;;;;;;2.93;100.00;99977.38;5000200;28;20034;-73
2023/12/05 08:42:16;;;;;;;6.90;1.98;;;;;;;2.97;100.00;99983.97;5016464;28;20446;-73
2023/12/05 08:44:42;;;;;;;10.32;2.13;;;;;;;3.03;100.00;99980.19;5036194;28;20029;-73
2023/12/05 08:47:08;;;;;;;14.77;2.45;;;;;;;3.09;100.00;99993.75;5017757;28;20084;-73
2023/12/05 08:49:33;;;;;;;7.15;1.88;;;;;;;3.16;100.00;99999.00;5028014;28;20029;-73
2023/12/05 08:51:59;;;;;;;12.63;2.40;;;;;;;3.21;100.00;100001.81;4988268;28;20021;-73
2023/12/05 08:54:24;;;;;;;10.55;2.03;;;;;;;3.28;100.00;100001.59;5036167;28;20041;-73
2023/12/05 08:56:50;;;;;;;9.48;2.33;;;;;;;3.33;100.00;100007.16;5001234;28;20030;-73
2023/12/05 08:59:16;;;;;;;7.80;1.67;;;;;;;3.40;100.00;99998.69;5011309;28;20033;-73
2023/12/05 09:01:45;;;;;;;8.35;1.70;;;;;;;3.46;100.00;100003.19;5003029;28;20512;-73
2023/12/05 09:04:11;;;;;;;9.65;1.95;;;;;;;3.54;100.00;100005.44;4993509;28;20490;-73
2023/12/05 09:06:36;;;;;;;6.70;1.92;;;;;;;3.63;100.00;100003.06;5015810;28;20056;-73
2023/12/05 09:09:03;;;;;;;12.30;2.60;;;;;;;3.76;100.00;100005.34;5026203;28;20426;-73
2023/12/05 09:11:28;;;;;;;10.52;2.63;;;;;;;3.86;100.00;100012.88;4983045;28;20025;-73
2023/12/05 09:13:54;;;;;;;9.10;2.70;;;;;;;3.96;100.00;100011.03;4993702;28;20083;-73
2023/12/05 09:16:20;;;;;;;7.78;3.17;;;;;;;4.07;100.00;100009.19;5018978;28;20037;-73
2023/12/05 09:18:45;;;;;;;10.82;2.95;;;;;;;4.18;100.00;100013.69;5002623;28;20039;-72
2023/12/05 09:21:11;;;;;;;9.23;2.92;;;;;;;4.27;100.00;100008.50;5006871;28;20043;-73
2023/12/05 09:23:36;;;;;;;9.13;2.53;;;;;;;4.38;100.00;100010.25;5044622;28;20037;-73
2023/12/05 09:26:02;;;;;;;13.45;3.30;;;;;;;4.48;100.00;100009.47;5002773;28;20029;-73
2023/12/05 09:28:28;;;;;;;11.45;2.90;;;;;;;4.57;100.00;100002.38;5017911;28;20028;-73
2023/12/05 09:30:53;;;;;;;9.75;2.45;;;;;;;4.66;100.00;100011.78;5035351;28;20025;-73
2023/12/05 09:33:20;;;;;;;18.95;3.22;;;;;;;4.75;100.00;100019.50;5019000;28;20029;-73
2023/12/05 09:35:45;;;;;;;11.65;3.15;;;;;;;4.84;100.00;100017.91;5018761;28;20060;-73
2023/12/05 09:38:11;;;;;;;10.52;2.60;;;;;;;4.93;100.00;100019.88;4982974;28;20029;-73
2023/12/05 09:40:36;;;;;;;10.18;2.88;;;;;;;5.02;100.00;100020.19;5028833;28;20116;-73
2023/12/05 09:43:02;;;;;;;9.27;3.35;;;;;;;5.12;100.00;100019.38;5027218;28;20037;-73
2023/12/05 09:45:28;;;;;;;8.95;2.67;;;;;;;5.21;100.00;100016.94;5033966;28;20087;-73
2023/12/05 09:47:54;;;;;;;9.57;2.35;;;;;;;5.28;100.00;100034.03;5009959;28;20088;-73
2023/12/05 09:50:20;;;;;;;8.88;2.33;;;;;;;5.34;100.00;100028.28;5016057;28;20030;-73
2023/12/05 09:52:46;;;;;;;6.30;2.15;;;;;;;5.45;100.00;100039.31;5010042;28;20025;-73
2023/12/05 09:55:11;;;;;;;9.90;2.45;;;;;;;5.56;100.00;100041.81;5015361;28;20066;-73
2023/12/05 09:57:37;;;;;;;6.45;1.92;;;;;;;5.63;100.00;100049.00;5015214;28;20030;-73
2023/12/05 10:00:03;;;;;;;14.20;2.28;;;;;;;5.72;100.00;100041.88;5012734;28;20079;-73
2023/12/05 10:02:28;;;;;;;9.18;2.40;;;;;;;5.81;100.00;100056.75;5018726;28;20044;-73
2023/12/05 10:05:02;;;;;;;9.98;2.55;;;;;;;5.90;100.00;100043.25;5018365;28;20021;-73
2023/12/05 10:07:34;;;;;;;8.60;1.90;;;;;;;5.99;100.00;100056.25;4999424;28;20105;-72
2023/12/05 10:10:00;;;;;;;;;;;;;;;6.06;100.00;100057.91;4999243;28;20049;-73
2023/12/05 10:12:25;;;;;;;8.93;2.30;;;;;;;6.17;100.00;100067.84;5034919;28;19943;-73
2023/12/05 10:14:51;;;;;;;11.30;2.83;;;;;;;6.26;100.00;100055.13;5029309;28;20022;-73
2023/12/05 10:17:16;;;;;;;8.55;2.35;;;;;;;6.33;100.00;100068.66;5026322;28;20140;-73
2023/12/05 10:19:42;;;;;;;8.30;2.35;;;;;;;6.43;100.00;100074.97;5001836;28;20060;-73
2023/12/05 10:22:07;;;;;;;9.07;2.72;;;;;;;6.51;100.00;100076.34;5006625;28;20038;-73
2023/12/05 10:24:45;;;;;;;6.38;2.95;;;;;;;6.60;100.00;100071.09;5014864;28;20479;-73
2023/12/05 10:27:11;;;;;;;8.63;2.35;;;;;;;6.69;100.00;100075.78;5000673;28;20041;-73
2023/12/05 10:29:38;;;;;;;8.77;2.35;;;;;;;6.80;100.00;100082.13;5002049;28;20037;-73
2023/12/05 10:32:03;;;;;;;8.15;2.10;;;;;;;6.88;100.00;100081.56;5034714;28;20037;-73
2023/12/05 10:34:29;;;;;;;9.85;2.30;;;;;;;6.94;100.00;100074.91;5034598;28;20029;-73
2023/12/05 10:37:02;;;;;;;10.35;2.88;;;;;;;7.05;100.00;100067.41;5014893;28;20044;-73
2023/12/05 10:39:34;;;;;;;14.77;3.20;;;;;;;7.12;100.00;100067.94;5014971;28;20030;-73
2023/12/05 10:42:00;;;;;;;12.07;2.97;;;;;;;7.20;100.00;100069.28;5017191;28;20032;-73
2023/12/05 10:44:25;;;;;;;9.82;2.50;;;;;;;7.28;100.00;100088.03;5017049;28;20282;-73
2023/12/05 10:46:56;;;;;;;10.27;2.85;;;;;;;7.34;100.00;100086.91;5017107;28;20029;-73
2023/12/05 10:49:21;;;;;;;5.30;2.08;;;;;;;7.45;100.00;100095.16;5018404;28;20033;-73
2023/12/05 10:51:47;;;;;;;9.50;2.80;;;;;;;7.48;100.00;100086.28;5003666;28;20489;-73
2023/12/05 10:54:12;;;;;;;11.63;2.70;;;;;;;7.52;100.00;100090.13;5037991;28;20041;-73
2023/12/05 10:56:38;;;;;;;10.45;2.15;;;;;;;7.62;100.00;100087.31;5004612;28;20030;-73
2023/12/05 10:59:04;;;;;;;10.80;2.63;;;;;;;7.68;100.00;100080.66;5005430;28;20033;-73
2023/12/05 11:01:29;;;;;;;10.27;2.00;;;;;;;7.83;100.00;100090.81;5034920;28;20033;-73
2023/12/05 11:03:58;;;;;;;11.43;2.25;;;;;;;7.85;100.00;100088.56;4989002;28;20576;-73
2023/12/05 11:06:25;;;;;;;14.43;2.60;;;;;;;7.93;100.00;100087.13;5021869;28;20041;-73
2023/12/05 11:08:51;;;;;;;10.93;2.38;;;;;;;7.97;100.00;100088.22;5023542;28;20034;-73
2023/12/05 11:11:16;;;;;;;13.70;2.83;;;;;;;8.03;100.00;100084.31;5017187;28;20414;-73
2023/12/05 11:13:42;;;;;;;10.65;2.42;;;;;;;8.07;100.00;100075.13;5021579;28;20029;-73
2023/12/05 11:16:20;;;;;;;9.75;2.55;;;;;;;8.16;100.00;100083.66;5020636;28;20033;-73
2023/12/05 11:18:46;;;;;;;11.40;3.13;;;;;;;8.20;100.00;100081.97;5017979;28;20041;-73
2023/12/05 11:21:29;;;;;;;10.98;2.60;;;;;;;8.20;100.00;100076.44;5041063;28;20109;-73
2023/12/05 11:24:01;;;;;;;11.00;2.20;;;;;;;8.27;100.00;100076.09;5044923;28;20414;-73
2023/12/05 11:26:29;;;;;;;10.75;2.35;;;;;;;8.29;100.00;100074.69;5032405;28;20133;-73